• Join FlightAware (Why Join?)
  • Login
  • US Flag 
01:50PM EDT


 

Airport Tracker/Info


-or-


 

Live Flight TrackerFlight Track Log ✈ CNK8273 ✈ 03-Sep-2013 ✈ CYLB - CYYC

Flight Track Log - Related Links

Times and Time Zones

All times are in EDT time to prevent confusion due to time zone crossing. See the CNK8273 flight status page for this flight to view local times or setup timezone preferences in your user account.

Time Position Orientation Groundspeed Altitude Reporting Facility
EDT Latitude Longitude Course Direction KTS MPH feet Rate Location/Type
02:02PM 54.6500 -112.1167 191° South 160 184 8,400  Level Edmonton Center
02:03PM 54.6000 -112.1333 191° South 160 184 10,200 1,680 Climbing Edmonton Center
02:04PM 54.5667 -112.1500 196° South 170 196 11,800 1,560 Climbing Edmonton Center
02:05PM 54.5167 -112.1833 201° Southwest 180 207 13,400 1,440 Climbing Edmonton Center
02:06PM 54.4667 -112.2000 191° South 180 207 14,700 1,260 Climbing Edmonton Center
02:07PM 54.4167 -112.2500 210° Southwest 190 219 16,000 1,200 Climbing Edmonton Center
02:08PM 54.3500 -112.2667 188° South 190 219 17,200 1,020 Climbing Edmonton Center
02:09PM 54.3000 -112.2833 191° South 190 219 18,100 900 Climbing Edmonton Center
02:10PM 54.2500 -112.3333 210° Southwest 200 230 19,000 900 Climbing Edmonton Center
02:11PM 54.2000 -112.3500 191° South 200 230 19,900 840 Climbing Edmonton Center
02:12PM 54.1500 -112.3667 191° South 200 230 20,700 720 Climbing Edmonton Center
02:13PM 54.1000 -112.4167 210° Southwest 200 230 21,400 780 Climbing Edmonton Center
02:14PM 54.0333 -112.4333 188° South 200 230 22,300 720 Climbing Edmonton Center
02:15PM 53.9833 -112.4833 210° Southwest 200 230 22,900 540 Climbing Edmonton Center
02:16PM 53.9333 -112.5000 191° South 200 230 23,400 480 Climbing Edmonton Center
02:17PM 53.8833 -112.5333 201° Southwest 200 230 23,900 540 Climbing Edmonton Center
02:18PM 53.8333 -112.5667 201° Southwest 200 230 24,500 480 Climbing Edmonton Center
02:19PM 53.7833 -112.5833 191° South 200 230 24,900 360 Climbing Edmonton Center
02:20PM 53.7167 -112.6167 196° South 200 230 25,300 300 Climbing Edmonton Center
02:21PM 53.6667 -112.6500 202° Southwest 200 230 25,600 300 Climbing Edmonton Center
02:22PM 53.6167 -112.6833 202° Southwest 210 242 25,900 180 Climbing Edmonton Center
02:23PM 53.5500 -112.7167 197° South 210 242 26,000  Climbing Edmonton Center
02:24PM 53.5000 -112.7333 191° South 220 253 26,000  Level Edmonton Center
02:25PM 53.4333 -112.7833 204° Southwest 220 253 26,000  Level Edmonton Center
02:26PM 53.3667 -112.8000 188° South 230 265 26,000  Level Edmonton Center
02:27PM 53.3167 -112.8500 211° Southwest 230 265 26,000  Level Edmonton Center
02:28PM 53.2500 -112.8667 189° South 220 253 26,000  Level Edmonton Center
02:29PM 53.2000 -112.9167 211° Southwest 220 253 26,000  Level Edmonton Center
02:30PM 53.1333 -112.9333 189° South 220 253 26,000  Level Edmonton Center
02:31PM 53.0667 -112.9667 197° South 220 253 26,000  Level Edmonton Center
02:32PM 53.0167 -112.9833 191° South 220 253 26,000  Level Edmonton Center
02:33PM 52.9500 -113.0333 204° Southwest 220 253 26,000  Level Edmonton Center
02:34PM 52.9000 -113.0500 191° South 220 253 26,000  Level Edmonton Center
02:35PM 52.8333 -113.1000 204° Southwest 220 253 26,000  Level Edmonton Center
02:36PM 52.7667 -113.1333 197° South 220 253 26,000  Level Edmonton Center
02:37PM 52.7167 -113.1500 191° South 220 253 26,000 -300 Level Edmonton Center
02:38PM 52.6667 -113.2000 211° Southwest 230 265 25,400 -660 Descending Edmonton Center
02:39PM 52.6000 -113.2167 189° South 240 276 24,700 -780 Descending Edmonton Center
02:40PM 52.5167 -113.2500 194° South 250 288 23,900 -900 Descending Edmonton Center
02:41PM 52.4500 -113.3000 205° Southwest 260 299 23,000 -840 Descending Edmonton Center
02:42PM 52.3833 -113.3333 197° South 260 299 22,300 -900 Descending Edmonton Center
02:43PM 52.3167 -113.3500 189° South 260 299 21,200 -1,020 Descending Edmonton Center
02:44PM 52.2333 -113.4000 200° South 260 299 20,300 -1,080 Descending Edmonton Center
02:45PM 52.1667 -113.4333 197° South 260 299 19,100 -1,080 Descending Edmonton Center
02:46PM 52.1000 -113.4833 205° Southwest 270 311 18,200 -1,020 Descending Edmonton Center
02:47PM 52.0333 -113.4833 180° South 260 299 17,100 -1,200 Descending Edmonton Center
02:48PM 51.9500 -113.5333 200° South 260 299 15,800 -1,260 Descending Edmonton Center
02:49PM 51.8833 -113.5667 197° South 270 311 14,600 -1,140 Descending Edmonton Center
02:50PM 51.8167 -113.6167 205° Southwest 260 299 13,600 -1,140 Descending Edmonton Center
02:51PM 51.7500 -113.6333 189° South 250 288 12,400 -1,200 Descending Edmonton Center
02:52PM 51.7000 -113.6667 202° Southwest 250 288 11,300 -960 Descending Edmonton Center
02:53PM 51.6167 -113.6833 187° South 240 276 10,500 -600 Descending Edmonton Center
02:54PM 51.5667 -113.7500 220° Southwest 230 265 10,100 -480 Descending Edmonton Center
02:55PM 51.5167 -113.8000 212° Southwest 230 265 9,600 -660 Descending Edmonton Center
02:56PM 51.4500 -113.8667 212° Southwest 230 265 8,800 -840 Descending Edmonton Center
02:57PM 51.4000 -113.9167 212° Southwest 230 265 8,000 -900 Descending Edmonton Center
02:58PM 51.3500 -113.9833 220° Southwest 230 265 7,000 -780 Descending Edmonton Center
02:59PM 51.2833 -114.0167 197° South 210 242 6,500 -300 Descending Edmonton Center
03:00PM 51.2333 -114.0333 192° South 190 219 6,500 -360 Level Edmonton Center
03:01PM 51.2000 -114.0333 180° South 150 173 5,800 -720 Descending Edmonton Center
03:02PM 51.1500 -114.0500 192° South 150 173 5,100 -780 Descending Edmonton Center
03:03PM 51.1167 -114.0333 163° South 110 127 4,300 -720 Descending Edmonton Center
03:04PM 51.0833 -114.0333 180° South 110 127 3,700 -600 Descending Edmonton Center